sensor_id;sensor_type;location;lat;lon;timestamp;temperature;humidity
3713;DHT22;1872;51.406;6.856;2023-04-24T00:00:30;11.20;99.90
3713;DHT22;1872;51.406;6.856;2023-04-24T00:02:56;11.20;99.90
3713;DHT22;1872;51.406;6.856;2023-04-24T00:05:23;11.20;99.90
3713;DHT22;1872;51.406;6.856;2023-04-24T00:07:50;11.20;99.90
3713;DHT22;1872;51.406;6.856;2023-04-24T00:10:18;11.20;99.90
3713;DHT22;1872;51.406;6.856;2023-04-24T00:12:44;11.20;99.90
3713;DHT22;1872;51.406;6.856;2023-04-24T00:15:10;11.20;99.90
3713;DHT22;1872;51.406;6.856;2023-04-24T00:17:35;11.20;99.90
3713;DHT22;1872;51.406;6.856;2023-04-24T00:20:01;11.20;99.90
3713;DHT22;1872;51.406;6.856;2023-04-24T00:22:30;11.20;99.90
3713;DHT22;1872;51.406;6.856;2023-04-24T00:24:56;11.20;99.90
3713;DHT22;1872;51.406;6.856;2023-04-24T00:27:22;11.20;99.90
3713;DHT22;1872;51.406;6.856;2023-04-24T00:29:48;11.20;99.90
3713;DHT22;1872;51.406;6.856;2023-04-24T00:32:14;11.20;99.90
3713;DHT22;1872;51.406;6.856;2023-04-24T00:34:40;11.20;99.90
3713;DHT22;1872;51.406;6.856;2023-04-24T00:37:06;11.10;99.90
3713;DHT22;1872;51.406;6.856;2023-04-24T00:39:32;11.10;99.90
3713;DHT22;1872;51.406;6.856;2023-04-24T00:41:57;11.10;99.90
3713;DHT22;1872;51.406;6.856;2023-04-24T00:44:23;11.00;99.90
3713;DHT22;1872;51.406;6.856;2023-04-24T00:46:49;11.00;99.90
3713;DHT22;1872;51.406;6.856;2023-04-24T00:49:20;10.90;99.90
3713;DHT22;1872;51.406;6.856;2023-04-24T00:51:46;10.80;99.90
3713;DHT22;1872;51.406;6.856;2023-04-24T00:54:13;10.70;99.90
3713;DHT22;1872;51.406;6.856;2023-04-24T00:56:39;10.70;99.90
3713;DHT22;1872;51.406;6.856;2023-04-24T00:59:05;10.70;99.90
3713;DHT22;1872;51.406;6.856;2023-04-24T01:01:31;10.60;99.90
3713;DHT22;1872;51.406;6.856;2023-04-24T01:03:58;10.70;99.90
3713;DHT22;1872;51.406;6.856;2023-04-24T01:06:27;10.60;99.90
3713;DHT22;1872;51.406;6.856;2023-04-24T01:08:54;10.60;99.90
3713;DHT22;1872;51.406;6.856;2023-04-24T01:11:21;10.60;99.90
3713;DHT22;1872;51.406;6.856;2023-04-24T01:13:47;10.60;99.90
3713;DHT22;1872;51.406;6.856;2023-04-24T01:16:14;10.50;99.90
3713;DHT22;1872;51.406;6.856;2023-04-24T01:18:43;10.50;99.90
3713;DHT22;1872;51.406;6.856;2023-04-24T01:21:10;10.40;99.90
3713;DHT22;1872;51.406;6.856;2023-04-24T01:23:38;10.30;99.90
3713;DHT22;1872;51.406;6.856;2023-04-24T01:26:04;10.30;99.90
3713;DHT22;1872;51.406;6.856;2023-04-24T01:28:30;10.20;99.90
3713;DHT22;1872;51.406;6.856;2023-04-24T01:30:56;10.20;99.90
3713;DHT22;1872;51.406;6.856;2023-04-24T01:33:22;10.20;99.90
3713;DHT22;1872;51.406;6.856;2023-04-24T01:35:48;10.20;99.90
3713;DHT22;1872;51.406;6.856;2023-04-24T01:38:14;10.20;99.90
3713;DHT22;1872;51.406;6.856;2023-04-24T01:40:40;10.20;99.90
3713;DHT22;1872;51.406;6.856;2023-04-24T01:43:05;10.10;99.90
3713;DHT22;1872;51.406;6.856;2023-04-24T01:45:31;10.10;99.90
3713;DHT22;1872;51.406;6.856;2023-04-24T01:47:57;10.10;99.90
3713;DHT22;1872;51.406;6.856;2023-04-24T01:50:22;10.00;99.90
3713;DHT22;1872;51.406;6.856;2023-04-24T01:52:48;9.90;99.90
3713;DHT22;1872;51.406;6.856;2023-04-24T01:55:14;9.90;99.90
3713;DHT22;1872;51.406;6.856;2023-04-24T01:57:40;9.90;99.90
3713;DHT22;1872;51.406;6.856;2023-04-24T02:00:06;9.80;99.90
3713;DHT22;1872;51.406;6.856;2023-04-24T02:02:33;9.90;99.90
3713;DHT22;1872;51.406;6.856;2023-04-24T02:04:58;9.80;99.90
3713;DHT22;1872;51.406;6.856;2023-04-24T02:07:24;9.90;99.90
3713;DHT22;1872;51.406;6.856;2023-04-24T02:09:50;9.90;99.90
3713;DHT22;1872;51.406;6.856;2023-04-24T02:12:16;9.90;99.90
3713;DHT22;1872;51.406;6.856;2023-04-24T02:14:43;9.90;99.90
3713;DHT22;1872;51.406;6.856;2023-04-24T02:17:08;9.80;99.90
3713;DHT22;1872;51.406;6.856;2023-04-24T02:19:34;9.80;99.90
3713;DHT22;1872;51.406;6.856;2023-04-24T02:22:00;9.80;99.90
3713;DHT22;1872;51.406;6.856;2023-04-24T02:24:25;9.80;99.90
3713;DHT22;1872;51.406;6.856;2023-04-24T02:26:51;9.80;99.90
3713;DHT22;1872;51.406;6.856;2023-04-24T02:29:17;9.80;99.90
3713;DHT22;1872;51.406;6.856;2023-04-24T02:31:43;9.80;99.90
3713;DHT22;1872;51.406;6.856;2023-04-24T02:34:09;9.80;99.90
3713;DHT22;1872;51.406;6.856;2023-04-24T02:36:34;9.80;99.90
3713;DHT22;1872;51.406;6.856;2023-04-24T02:39:00;9.80;99.90
3713;DHT22;1872;51.406;6.856;2023-04-24T02:41:26;9.80;99.90
3713;DHT22;1872;51.406;6.856;2023-04-24T02:43:59;9.80;99.90
3713;DHT22;1872;51.406;6.856;2023-04-24T02:46:25;9.80;99.90
3713;DHT22;1872;51.406;6.856;2023-04-24T02:48:51;9.90;99.90
3713;DHT22;1872;51.406;6.856;2023-04-24T02:51:16;9.80;99.90
3713;DHT22;1872;51.406;6.856;2023-04-24T02:53:42;9.80;99.90
3713;DHT22;1872;51.406;6.856;2023-04-24T02:56:09;9.80;99.90
3713;DHT22;1872;51.406;6.856;2023-04-24T02:58:37;9.80;99.90
3713;DHT22;1872;51.406;6.856;2023-04-24T03:01:03;9.80;99.90
3713;DHT22;1872;51.406;6.856;2023-04-24T03:03:29;9.90;99.90
3713;DHT22;1872;51.406;6.856;2023-04-24T03:05:54;9.90;99.90
3713;DHT22;1872;51.406;6.856;2023-04-24T03:08:20;9.90;99.90
3713;DHT22;1872;51.406;6.856;2023-04-24T03:10:46;9.90;99.90
3713;DHT22;1872;51.406;6.856;2023-04-24T03:13:12;9.90;99.90
3713;DHT22;1872;51.406;6.856;2023-04-24T03:15:37;9.90;99.90
3713;DHT22;1872;51.406;6.856;2023-04-24T03:18:03;9.90;99.90
3713;DHT22;1872;51.406;6.856;2023-04-24T03:20:28;9.90;99.90
3713;DHT22;1872;51.406;6.856;2023-04-24T03:22:54;9.90;99.90
3713;DHT22;1872;51.406;6.856;2023-04-24T03:25:20;9.90;99.90
3713;DHT22;1872;51.406;6.856;2023-04-24T03:27:45;9.90;99.90
3713;DHT22;1872;51.406;6.856;2023-04-24T03:30:11;9.90;99.90
3713;DHT22;1872;51.406;6.856;2023-04-24T03:32:37;9.90;99.90
3713;DHT22;1872;51.406;6.856;2023-04-24T03:35:06;9.90;99.90
3713;DHT22;1872;51.406;6.856;2023-04-24T03:37:32;9.90;99.90
3713;DHT22;1872;51.406;6.856;2023-04-24T03:39:58;9.90;99.90
3713;DHT22;1872;51.406;6.856;2023-04-24T03:42:23;9.90;99.90
3713;DHT22;1872;51.406;6.856;2023-04-24T03:44:49;9.90;99.90
3713;DHT22;1872;51.406;6.856;2023-04-24T03:47:14;9.90;99.90
3713;DHT22;1872;51.406;6.856;2023-04-24T03:49:40;9.90;99.90
3713;DHT22;1872;51.406;6.856;2023-04-24T03:52:06;9.90;99.90
3713;DHT22;1872;51.406;6.856;2023-04-24T03:54:31;9.90;99.90
3713;DHT22;1872;51.406;6.856;2023-04-24T03:56:57;9.90;99.90
3713;DHT22;1872;51.406;6.856;2023-04-24T03:59:22;9.90;99.90
3713;DHT22;1872;51.406;6.856;2023-04-24T04:01:48;9.90;99.90
3713;DHT22;1872;51.406;6.856;2023-04-24T04:04:14;9.90;99.90
3713;DHT22;1872;51.406;6.856;2023-04-24T04:06:39;9.90;99.90
3713;DHT22;1872;51.406;6.856;2023-04-24T04:09:05;9.90;99.90
3713;DHT22;1872;51.406;6.856;2023-04-24T04:11:31;9.90;99.90
3713;DHT22;1872;51.406;6.856;2023-04-24T04:13:56;9.90;99.90
3713;DHT22;1872;51.406;6.856;2023-04-24T04:16:22;9.90;99.90
3713;DHT22;1872;51.406;6.856;2023-04-24T04:18:48;9.90;99.90
3713;DHT22;1872;51.406;6.856;2023-04-24T04:21:14;9.90;99.90
3713;DHT22;1872;51.406;6.856;2023-04-24T04:23:40;9.90;99.90
3713;DHT22;1872;51.406;6.856;2023-04-24T04:26:06;9.90;99.90
3713;DHT22;1872;51.406;6.856;2023-04-24T04:28:31;9.90;99.90
3713;DHT22;1872;51.406;6.856;2023-04-24T04:30:57;9.90;99.90
3713;DHT22;1872;51.406;6.856;2023-04-24T04:33:26;9.90;99.90
3713;DHT22;1872;51.406;6.856;2023-04-24T04:36:01;9.90;99.90
3713;DHT22;1872;51.406;6.856;2023-04-24T04:38:37;9.90;99.90
3713;DHT22;1872;51.406;6.856;2023-04-24T04:41:14;9.90;99.90
3713;DHT22;1872;51.406;6.856;2023-04-24T04:43:42;9.90;99.90
3713;DHT22;1872;51.406;6.856;2023-04-24T04:46:08;9.90;99.90
3713;DHT22;1872;51.406;6.856;2023-04-24T04:48:36;9.90;99.90
3713;DHT22;1872;51.406;6.856;2023-04-24T04:51:01;9.90;99.90
3713;DHT22;1872;51.406;6.856;2023-04-24T04:53:27;9.80;99.90
3713;DHT22;1872;51.406;6.856;2023-04-24T04:55:52;9.90;99.90
3713;DHT22;1872;51.406;6.856;2023-04-24T04:58:18;9.90;99.90
3713;DHT22;1872;51.406;6.856;2023-04-24T05:00:44;9.80;99.90
3713;DHT22;1872;51.406;6.856;2023-04-24T05:03:09;9.80;99.90
3713;DHT22;1872;51.406;6.856;2023-04-24T05:05:35;9.80;99.90
3713;DHT22;1872;51.406;6.856;2023-04-24T05:08:01;9.80;99.90
3713;DHT22;1872;51.406;6.856;2023-04-24T05:10:26;9.80;99.90
3713;DHT22;1872;51.406;6.856;2023-04-24T05:12:52;9.80;99.90
3713;DHT22;1872;51.406;6.856;2023-04-24T05:15:18;9.80;99.90
3713;DHT22;1872;51.406;6.856;2023-04-24T05:17:43;9.80;99.90
3713;DHT22;1872;51.406;6.856;2023-04-24T05:20:09;9.80;99.90
3713;DHT22;1872;51.406;6.856;2023-04-24T05:22:35;9.70;99.90
3713;DHT22;1872;51.406;6.856;2023-04-24T05:25:01;9.70;99.90
3713;DHT22;1872;51.406;6.856;2023-04-24T05:27:27;9.60;99.90
3713;DHT22;1872;51.406;6.856;2023-04-24T05:29:53;9.60;99.90
3713;DHT22;1872;51.406;6.856;2023-04-24T05:32:19;9.50;99.90
3713;DHT22;1872;51.406;6.856;2023-04-24T05:34:45;9.50;99.90
3713;DHT22;1872;51.406;6.856;2023-04-24T05:37:10;9.50;99.90
3713;DHT22;1872;51.406;6.856;2023-04-24T05:39:36;9.40;99.90
3713;DHT22;1872;51.406;6.856;2023-04-24T05:42:03;9.40;99.90
3713;DHT22;1872;51.406;6.856;2023-04-24T05:44:30;9.40;99.90
3713;DHT22;1872;51.406;6.856;2023-04-24T05:46:56;9.40;99.90
3713;DHT22;1872;51.406;6.856;2023-04-24T05:49:22;9.30;99.90
3713;DHT22;1872;51.406;6.856;2023-04-24T05:51:47;9.30;99.90
3713;DHT22;1872;51.406;6.856;2023-04-24T05:54:13;9.30;99.90
3713;DHT22;1872;51.406;6.856;2023-04-24T05:56:39;9.30;99.90
3713;DHT22;1872;51.406;6.856;2023-04-24T05:59:05;9.30;99.90
3713;DHT22;1872;51.406;6.856;2023-04-24T06:01:31;9.30;99.90
3713;DHT22;1872;51.406;6.856;2023-04-24T06:03:57;9.30;99.90
3713;DHT22;1872;51.406;6.856;2023-04-24T06:06:23;9.30;99.90
3713;DHT22;1872;51.406;6.856;2023-04-24T06:08:49;9.30;99.90
3713;DHT22;1872;51.406;6.856;2023-04-24T06:11:15;9.30;99.90
3713;DHT22;1872;51.406;6.856;2023-04-24T06:13:41;9.30;99.90
3713;DHT22;1872;51.406;6.856;2023-04-24T06:16:06;9.30;99.90
3713;DHT22;1872;51.406;6.856;2023-04-24T06:18:32;9.30;99.90
3713;DHT22;1872;51.406;6.856;2023-04-24T06:20:58;9.30;99.90
3713;DHT22;1872;51.406;6.856;2023-04-24T06:23:23;9.20;99.90
3713;DHT22;1872;51.406;6.856;2023-04-24T06:25:49;9.20;99.90
3713;DHT22;1872;51.406;6.856;2023-04-24T06:28:15;9.20;99.90
3713;DHT22;1872;51.406;6.856;2023-04-24T06:30:41;9.20;99.90
3713;DHT22;1872;51.406;6.856;2023-04-24T06:33:06;9.20;99.90
3713;DHT22;1872;51.406;6.856;2023-04-24T06:35:32;9.20;99.90
3713;DHT22;1872;51.406;6.856;2023-04-24T06:37:58;9.10;99.90
3713;DHT22;1872;51.406;6.856;2023-04-24T06:40:23;9.10;99.90
3713;DHT22;1872;51.406;6.856;2023-04-24T06:42:49;9.20;99.90
3713;DHT22;1872;51.406;6.856;2023-04-24T06:45:15;9.20;99.90
3713;DHT22;1872;51.406;6.856;2023-04-24T06:47:41;9.20;99.90
3713;DHT22;1872;51.406;6.856;2023-04-24T06:50:07;9.20;99.90
3713;DHT22;1872;51.406;6.856;2023-04-24T06:52:32;9.20;99.90
3713;DHT22;1872;51.406;6.856;2023-04-24T06:55:04;9.20;99.90
3713;DHT22;1872;51.406;6.856;2023-04-24T06:57:31;9.10;99.90
3713;DHT22;1872;51.406;6.856;2023-04-24T06:59:57;9.10;99.90
3713;DHT22;1872;51.406;6.856;2023-04-24T07:02:23;9.10;99.90
3713;DHT22;1872;51.406;6.856;2023-04-24T07:04:48;9.10;99.90
3713;DHT22;1872;51.406;6.856;2023-04-24T07:07:14;9.10;99.90
3713;DHT22;1872;51.406;6.856;2023-04-24T07:09:40;9.20;99.90
3713;DHT22;1872;51.406;6.856;2023-04-24T07:12:11;9.20;99.90
3713;DHT22;1872;51.406;6.856;2023-04-24T07:14:37;9.20;99.90
3713;DHT22;1872;51.406;6.856;2023-04-24T07:17:04;9.20;99.90
3713;DHT22;1872;51.406;6.856;2023-04-24T07:19:31;9.20;99.90
3713;DHT22;1872;51.406;6.856;2023-04-24T07:21:56;9.20;99.90
3713;DHT22;1872;51.406;6.856;2023-04-24T07:24:24;9.20;99.90
3713;DHT22;1872;51.406;6.856;2023-04-24T07:26:51;9.20;99.90
3713;DHT22;1872;51.406;6.856;2023-04-24T07:29:17;9.10;99.90
3713;DHT22;1872;51.406;6.856;2023-04-24T07:31:43;9.10;99.90
3713;DHT22;1872;51.406;6.856;2023-04-24T07:34:09;9.00;99.90
3713;DHT22;1872;51.406;6.856;2023-04-24T07:36:35;9.00;99.90
3713;DHT22;1872;51.406;6.856;2023-04-24T07:39:01;9.00;99.90
3713;DHT22;1872;51.406;6.856;2023-04-24T07:41:26;9.00;99.90
3713;DHT22;1872;51.406;6.856;2023-04-24T07:43:53;9.10;99.90
3713;DHT22;1872;51.406;6.856;2023-04-24T07:46:19;9.00;99.90
3713;DHT22;1872;51.406;6.856;2023-04-24T07:48:45;8.90;99.90
3713;DHT22;1872;51.406;6.856;2023-04-24T07:51:14;8.90;99.90
3713;DHT22;1872;51.406;6.856;2023-04-24T07:53:40;8.90;99.90
3713;DHT22;1872;51.406;6.856;2023-04-24T07:56:06;8.80;99.90
3713;DHT22;1872;51.406;6.856;2023-04-24T07:58:32;8.80;99.90
3713;DHT22;1872;51.406;6.856;2023-04-24T08:00:57;8.80;99.90
3713;DHT22;1872;51.406;6.856;2023-04-24T08:03:23;8.80;99.90
3713;DHT22;1872;51.406;6.856;2023-04-24T08:05:49;8.70;99.90
3713;DHT22;1872;51.406;6.856;2023-04-24T08:08:16;8.60;99.90
3713;DHT22;1872;51.406;6.856;2023-04-24T08:10:42;8.60;99.90
3713;DHT22;1872;51.406;6.856;2023-04-24T08:13:07;8.60;99.90
3713;DHT22;1872;51.406;6.856;2023-04-24T08:15:33;8.60;99.90
3713;DHT22;1872;51.406;6.856;2023-04-24T08:17:59;8.60;99.90
3713;DHT22;1872;51.406;6.856;2023-04-24T08:20:25;8.50;99.90
3713;DHT22;1872;51.406;6.856;2023-04-24T08:22:50;8.50;99.90
3713;DHT22;1872;51.406;6.856;2023-04-24T08:25:16;8.60;99.90
3713;DHT22;1872;51.406;6.856;2023-04-24T08:27:43;8.50;99.90
3713;DHT22;1872;51.406;6.856;2023-04-24T08:30:09;8.50;99.90
3713;DHT22;1872;51.406;6.856;2023-04-24T08:32:35;8.50;99.90
3713;DHT22;1872;51.406;6.856;2023-04-24T08:35:01;8.40;99.90
3713;DHT22;1872;51.406;6.856;2023-04-24T08:37:27;8.40;99.90
3713;DHT22;1872;51.406;6.856;2023-04-24T08:39:53;8.50;99.90
3713;DHT22;1872;51.406;6.856;2023-04-24T08:42:21;8.60;99.90
3713;DHT22;1872;51.406;6.856;2023-04-24T08:44:48;8.70;99.90
3713;DHT22;1872;51.406;6.856;2023-04-24T08:47:15;8.70;99.90
3713;DHT22;1872;51.406;6.856;2023-04-24T08:49:40;8.80;99.90
3713;DHT22;1872;51.406;6.856;2023-04-24T08:52:07;8.90;99.90
3713;DHT22;1872;51.406;6.856;2023-04-24T08:54:36;9.00;99.90
3713;DHT22;1872;51.406;6.856;2023-04-24T08:57:03;9.00;99.90
3713;DHT22;1872;51.406;6.856;2023-04-24T08:59:29;9.10;99.90
3713;DHT22;1872;51.406;6.856;2023-04-24T09:01:56;9.20;99.90
3713;DHT22;1872;51.406;6.856;2023-04-24T09:04:23;9.20;99.90
3713;DHT22;1872;51.406;6.856;2023-04-24T09:06:57;9.20;99.90
3713;DHT22;1872;51.406;6.856;2023-04-24T09:09:26;9.30;99.90
3713;DHT22;1872;51.406;6.856;2023-04-24T09:11:55;9.20;99.90
3713;DHT22;1872;51.406;6.856;2023-04-24T09:14:21;9.20;99.90
3713;DHT22;1872;51.406;6.856;2023-04-24T09:16:49;9.20;99.90
3713;DHT22;1872;51.406;6.856;2023-04-24T09:19:14;9.20;99.90
3713;DHT22;1872;51.406;6.856;2023-04-24T09:21:40;9.10;99.90
3713;DHT22;1872;51.406;6.856;2023-04-24T09:24:17;9.10;99.90
3713;DHT22;1872;51.406;6.856;2023-04-24T09:26:43;9.10;99.90
3713;DHT22;1872;51.406;6.856;2023-04-24T09:29:16;9.10;99.90
3713;DHT22;1872;51.406;6.856;2023-04-24T09:31:43;9.20;99.90
3713;DHT22;1872;51.406;6.856;2023-04-24T09:34:09;9.10;99.90
3713;DHT22;1872;51.406;6.856;2023-04-24T09:39:10;9.10;99.90
3713;DHT22;1872;51.406;6.856;2023-04-24T09:44:15;9.10;99.90
3713;DHT22;1872;51.406;6.856;2023-04-24T09:46:46;9.10;99.90
3713;DHT22;1872;51.406;6.856;2023-04-24T09:49:16;9.10;99.90
3713;DHT22;1872;51.406;6.856;2023-04-24T09:51:42;9.00;99.90
3713;DHT22;1872;51.406;6.856;2023-04-24T09:54:19;9.00;99.90
3713;DHT22;1872;51.406;6.856;2023-04-24T09:56:48;8.90;99.90
3713;DHT22;1872;51.406;6.856;2023-04-24T09:59:15;9.00;99.90
3713;DHT22;1872;51.406;6.856;2023-04-24T10:01:41;9.00;99.90
3713;DHT22;1872;51.406;6.856;2023-04-24T10:04:21;9.00;99.90
3713;DHT22;1872;51.406;6.856;2023-04-24T10:06:48;9.00;99.90
3713;DHT22;1872;51.406;6.856;2023-04-24T10:09:15;9.00;99.90
3713;DHT22;1872;51.406;6.856;2023-04-24T10:11:43;9.00;99.90
3713;DHT22;1872;51.406;6.856;2023-04-24T10:14:15;9.00;99.90
3713;DHT22;1872;51.406;6.856;2023-04-24T10:16:43;9.10;99.90
3713;DHT22;1872;51.406;6.856;2023-04-24T10:19:10;9.20;99.90
3713;DHT22;1872;51.406;6.856;2023-04-24T10:21:36;9.30;99.90
3713;DHT22;1872;51.406;6.856;2023-04-24T10:24:08;9.40;99.90
3713;DHT22;1872;51.406;6.856;2023-04-24T10:26:35;9.50;99.90
3713;DHT22;1872;51.406;6.856;2023-04-24T10:29:01;9.50;99.90
3713;DHT22;1872;51.406;6.856;2023-04-24T10:31:30;9.50;99.90
3713;DHT22;1872;51.406;6.856;2023-04-24T10:33:56;9.50;99.90
3713;DHT22;1872;51.406;6.856;2023-04-24T10:36:23;9.60;99.90
3713;DHT22;1872;51.406;6.856;2023-04-24T10:38:53;9.60;99.90
3713;DHT22;1872;51.406;6.856;2023-04-24T10:41:20;9.60;99.90
3713;DHT22;1872;51.406;6.856;2023-04-24T10:43:48;9.50;99.90
3713;DHT22;1872;51.406;6.856;2023-04-24T10:46:30;9.50;99.90
3713;DHT22;1872;51.406;6.856;2023-04-24T10:48:56;9.50;99.90
3713;DHT22;1872;51.406;6.856;2023-04-24T10:51:24;9.50;99.90
3713;DHT22;1872;51.406;6.856;2023-04-24T10:53:51;9.50;99.90
3713;DHT22;1872;51.406;6.856;2023-04-24T10:56:17;9.50;99.90
3713;DHT22;1872;51.406;6.856;2023-04-24T10:58:44;9.60;99.90
3713;DHT22;1872;51.406;6.856;2023-04-24T11:01:27;9.60;99.90
3713;DHT22;1872;51.406;6.856;2023-04-24T11:04:00;9.70;99.90
3713;DHT22;1872;51.406;6.856;2023-04-24T11:06:35;9.70;99.90
3713;DHT22;1872;51.406;6.856;2023-04-24T11:09:06;9.80;99.90
3713;DHT22;1872;51.406;6.856;2023-04-24T11:11:33;9.90;99.90
3713;DHT22;1872;51.406;6.856;2023-04-24T11:16:54;10.10;99.90
3713;DHT22;1872;51.406;6.856;2023-04-24T11:19:26;10.30;99.90
3713;DHT22;1872;51.406;6.856;2023-04-24T11:22:03;10.30;99.90
3713;DHT22;1872;51.406;6.856;2023-04-24T11:27:22;10.20;99.90
3713;DHT22;1872;51.406;6.856;2023-04-24T11:35:06;10.10;99.90
3713;DHT22;1872;51.406;6.856;2023-04-24T11:37:36;10.00;99.90
3713;DHT22;1872;51.406;6.856;2023-04-24T11:40:04;10.10;99.90
3713;DHT22;1872;51.406;6.856;2023-04-24T11:42:38;10.00;99.90
3713;DHT22;1872;51.406;6.856;2023-04-24T11:45:14;10.10;99.90
3713;DHT22;1872;51.406;6.856;2023-04-24T11:47:40;10.10;99.90
3713;DHT22;1872;51.406;6.856;2023-04-24T11:50:08;10.20;99.90
3713;DHT22;1872;51.406;6.856;2023-04-24T11:52:38;10.30;99.90
3713;DHT22;1872;51.406;6.856;2023-04-24T11:55:04;10.40;99.90
3713;DHT22;1872;51.406;6.856;2023-04-24T11:57:30;10.60;99.90
3713;DHT22;1872;51.406;6.856;2023-04-24T12:00:02;10.70;99.90
3713;DHT22;1872;51.406;6.856;2023-04-24T12:02:28;10.80;99.90
3713;DHT22;1872;51.406;6.856;2023-04-24T12:04:54;11.00;99.90
3713;DHT22;1872;51.406;6.856;2023-04-24T12:07:21;11.00;99.90
3713;DHT22;1872;51.406;6.856;2023-04-24T12:09:55;11.10;99.90
3713;DHT22;1872;51.406;6.856;2023-04-24T12:12:24;11.20;99.90
3713;DHT22;1872;51.406;6.856;2023-04-24T12:14:56;11.10;99.90
3713;DHT22;1872;51.406;6.856;2023-04-24T12:17:29;11.00;99.90
3713;DHT22;1872;51.406;6.856;2023-04-24T12:20:05;10.90;99.90
3713;DHT22;1872;51.406;6.856;2023-04-24T12:25:14;10.70;99.90
3713;DHT22;1872;51.406;6.856;2023-04-24T12:27:41;10.60;99.90
3713;DHT22;1872;51.406;6.856;2023-04-24T12:30:13;10.60;99.90
3713;DHT22;1872;51.406;6.856;2023-04-24T12:32:58;10.60;99.90
3713;DHT22;1872;51.406;6.856;2023-04-24T12:35:27;10.60;99.90
3713;DHT22;1872;51.406;6.856;2023-04-24T12:37:53;10.70;99.90
3713;DHT22;1872;51.406;6.856;2023-04-24T12:40:21;10.80;99.90
3713;DHT22;1872;51.406;6.856;2023-04-24T12:42:48;10.80;99.90
3713;DHT22;1872;51.406;6.856;2023-04-24T12:45:16;10.80;99.90
3713;DHT22;1872;51.406;6.856;2023-04-24T12:47:43;10.90;99.90
3713;DHT22;1872;51.406;6.856;2023-04-24T12:50:10;10.90;99.90
3713;DHT22;1872;51.406;6.856;2023-04-24T12:52:37;10.90;99.90
3713;DHT22;1872;51.406;6.856;2023-04-24T12:55:03;11.00;99.90
3713;DHT22;1872;51.406;6.856;2023-04-24T12:57:30;11.10;99.90
3713;DHT22;1872;51.406;6.856;2023-04-24T12:59:57;11.20;99.90
3713;DHT22;1872;51.406;6.856;2023-04-24T13:02:24;11.30;99.90
3713;DHT22;1872;51.406;6.856;2023-04-24T13:04:51;11.30;99.90
3713;DHT22;1872;51.406;6.856;2023-04-24T13:07:17;11.40;99.90
3713;DHT22;1872;51.406;6.856;2023-04-24T13:09:43;11.40;99.90
3713;DHT22;1872;51.406;6.856;2023-04-24T13:12:10;11.40;99.90
3713;DHT22;1872;51.406;6.856;2023-04-24T13:14:36;11.30;99.90
3713;DHT22;1872;51.406;6.856;2023-04-24T13:17:02;11.20;99.90
3713;DHT22;1872;51.406;6.856;2023-04-24T13:19:28;11.10;99.90
3713;DHT22;1872;51.406;6.856;2023-04-24T13:21:56;11.00;99.90
3713;DHT22;1872;51.406;6.856;2023-04-24T13:24:25;10.90;99.90
3713;DHT22;1872;51.406;6.856;2023-04-24T13:26:52;10.80;99.90
3713;DHT22;1872;51.406;6.856;2023-04-24T13:29:18;10.70;99.90
3713;DHT22;1872;51.406;6.856;2023-04-24T13:31:44;10.70;99.90
3713;DHT22;1872;51.406;6.856;2023-04-24T13:34:10;10.70;99.90
3713;DHT22;1872;51.406;6.856;2023-04-24T13:36:36;10.70;99.90
3713;DHT22;1872;51.406;6.856;2023-04-24T13:39:02;10.70;99.90
3713;DHT22;1872;51.406;6.856;2023-04-24T13:41:32;10.80;99.90
3713;DHT22;1872;51.406;6.856;2023-04-24T13:43:58;10.80;99.90
3713;DHT22;1872;51.406;6.856;2023-04-24T13:46:24;10.90;99.90
3713;DHT22;1872;51.406;6.856;2023-04-24T13:48:49;11.00;99.90
3713;DHT22;1872;51.406;6.856;2023-04-24T13:51:15;11.00;99.90
3713;DHT22;1872;51.406;6.856;2023-04-24T13:53:41;11.10;99.90
3713;DHT22;1872;51.406;6.856;2023-04-24T13:56:06;11.10;99.90
3713;DHT22;1872;51.406;6.856;2023-04-24T13:58:33;11.20;99.90
3713;DHT22;1872;51.406;6.856;2023-04-24T14:00:58;11.20;99.90
3713;DHT22;1872;51.406;6.856;2023-04-24T14:03:24;11.20;99.90
3713;DHT22;1872;51.406;6.856;2023-04-24T14:05:50;11.20;99.90
3713;DHT22;1872;51.406;6.856;2023-04-24T14:08:15;11.20;99.90
3713;DHT22;1872;51.406;6.856;2023-04-24T14:10:42;11.30;99.90
3713;DHT22;1872;51.406;6.856;2023-04-24T14:13:08;11.40;99.90
3713;DHT22;1872;51.406;6.856;2023-04-24T14:15:35;11.50;99.90
3713;DHT22;1872;51.406;6.856;2023-04-24T14:18:03;11.60;99.90
3713;DHT22;1872;51.406;6.856;2023-04-24T14:20:28;11.60;99.90
3713;DHT22;1872;51.406;6.856;2023-04-24T14:22:54;11.60;99.90
3713;DHT22;1872;51.406;6.856;2023-04-24T14:25:20;11.60;99.90
3713;DHT22;1872;51.406;6.856;2023-04-24T14:27:47;11.70;99.90
3713;DHT22;1872;51.406;6.856;2023-04-24T14:30:13;11.70;99.90
3713;DHT22;1872;51.406;6.856;2023-04-24T14:32:40;11.70;99.90
3713;DHT22;1872;51.406;6.856;2023-04-24T14:35:06;11.60;99.90
3713;DHT22;1872;51.406;6.856;2023-04-24T14:37:32;11.60;99.90
3713;DHT22;1872;51.406;6.856;2023-04-24T14:39:58;11.50;99.90
3713;DHT22;1872;51.406;6.856;2023-04-24T14:42:24;11.40;99.90
3713;DHT22;1872;51.406;6.856;2023-04-24T14:44:49;11.40;99.90
3713;DHT22;1872;51.406;6.856;2023-04-24T14:47:16;11.30;99.90
3713;DHT22;1872;51.406;6.856;2023-04-24T14:49:43;11.30;99.90
3713;DHT22;1872;51.406;6.856;2023-04-24T14:52:09;11.20;99.90
3713;DHT22;1872;51.406;6.856;2023-04-24T14:54:35;11.10;99.90
3713;DHT22;1872;51.406;6.856;2023-04-24T14:57:01;11.00;99.90
3713;DHT22;1872;51.406;6.856;2023-04-24T14:59:27;11.00;99.90
3713;DHT22;1872;51.406;6.856;2023-04-24T15:01:53;10.90;99.90
3713;DHT22;1872;51.406;6.856;2023-04-24T15:04:23;10.90;99.90
3713;DHT22;1872;51.406;6.856;2023-04-24T15:06:53;10.90;99.90
3713;DHT22;1872;51.406;6.856;2023-04-24T15:09:20;11.00;99.90
3713;DHT22;1872;51.406;6.856;2023-04-24T15:11:47;11.00;99.90
3713;DHT22;1872;51.406;6.856;2023-04-24T15:14:14;11.00;99.90
3713;DHT22;1872;51.406;6.856;2023-04-24T15:16:40;11.10;99.90
3713;DHT22;1872;51.406;6.856;2023-04-24T15:19:06;11.10;99.90
3713;DHT22;1872;51.406;6.856;2023-04-24T15:21:32;11.20;99.90
3713;DHT22;1872;51.406;6.856;2023-04-24T15:23:57;11.30;99.90
3713;DHT22;1872;51.406;6.856;2023-04-24T15:26:24;11.30;99.90
3713;DHT22;1872;51.406;6.856;2023-04-24T15:28:51;11.30;99.90
3713;DHT22;1872;51.406;6.856;2023-04-24T15:31:17;11.40;99.90
3713;DHT22;1872;51.406;6.856;2023-04-24T15:33:43;11.50;99.90
3713;DHT22;1872;51.406;6.856;2023-04-24T15:36:09;11.60;99.90
3713;DHT22;1872;51.406;6.856;2023-04-24T15:38:35;11.60;99.90
3713;DHT22;1872;51.406;6.856;2023-04-24T15:41:02;11.60;99.90
3713;DHT22;1872;51.406;6.856;2023-04-24T15:43:28;11.50;99.90
3713;DHT22;1872;51.406;6.856;2023-04-24T15:45:56;11.40;99.90
3713;DHT22;1872;51.406;6.856;2023-04-24T15:48:22;11.40;99.90
3713;DHT22;1872;51.406;6.856;2023-04-24T15:50:48;11.50;99.90
3713;DHT22;1872;51.406;6.856;2023-04-24T15:53:13;11.50;99.90
3713;DHT22;1872;51.406;6.856;2023-04-24T15:55:49;11.50;99.90
3713;DHT22;1872;51.406;6.856;2023-04-24T15:58:18;11.50;99.90
3713;DHT22;1872;51.406;6.856;2023-04-24T16:00:44;11.50;99.90
3713;DHT22;1872;51.406;6.856;2023-04-24T16:03:10;11.50;99.90
3713;DHT22;1872;51.406;6.856;2023-04-24T16:05:36;11.50;99.90
3713;DHT22;1872;51.406;6.856;2023-04-24T16:08:01;11.40;99.90
3713;DHT22;1872;51.406;6.856;2023-04-24T16:10:27;11.40;99.90
3713;DHT22;1872;51.406;6.856;2023-04-24T16:12:53;11.30;99.90
3713;DHT22;1872;51.406;6.856;2023-04-24T16:15:22;11.30;99.90
3713;DHT22;1872;51.406;6.856;2023-04-24T16:17:48;11.20;99.90
3713;DHT22;1872;51.406;6.856;2023-04-24T16:20:14;11.10;99.90
3713;DHT22;1872;51.406;6.856;2023-04-24T16:22:40;11.10;99.90
3713;DHT22;1872;51.406;6.856;2023-04-24T16:25:07;11.10;99.90
3713;DHT22;1872;51.406;6.856;2023-04-24T16:27:33;11.10;99.90